Time;durP1;ratioP1;P1;durP2;ratioP2;P2;SDS_P1;SDS_P2;PMS_P1;PMS_P2;Temp;Humidity;BMP_temperature;BMP_pressure;BME280_temperature;BME280_humidity;BME280_pressure;Samples;Min_cycle;Max_cycle;Signal;HPM_P1;HPM_P2
2023/04/09 09:17:54;;;;;;;15.45;12.05;;;;;;;;;;6241215;22;20060;-88
2023/04/09 09:20:21;;;;;;;15.88;12.55;;;;;;;;;;6309634;22;20011;-86
2023/04/09 09:22:51;;;;;;;15.23;11.82;;;;;;;;;;6307170;22;20006;-88
2023/04/09 09:25:17;;;;;;;18.10;12.63;;;;;;;;;;6308802;22;20006;-88
2023/04/09 09:27:42;;;;;;;13.68;11.80;;;;;;;;;;6308833;22;20003;-87
2023/04/09 19:36:36;;;;;;;4.47;4.07;;;;;;;;;;6253054;22;20113;-83
2023/04/09 19:39:02;;;;;;;4.82;4.40;;;;;;;;;;6307724;22;20031;-81
2023/04/09 19:41:28;;;;;;;4.72;4.32;;;;;;;;;;6263359;22;20404;-83
2023/04/09 19:43:54;;;;;;;4.93;4.22;;;;;;;;;;6278328;22;20007;-83
2023/04/09 19:46:19;;;;;;;4.35;3.97;;;;;;;;;;6277876;22;19999;-83
2023/04/09 19:48:46;;;;;;;4.72;4.10;;;;;;;;;;6277934;22;20036;-84
2023/04/09 19:51:18;;;;;;;4.75;4.10;;;;;;;;;;6276305;22;20003;-83
2023/04/09 19:53:45;;;;;;;4.80;4.38;;;;;;;;;;6276558;22;20004;-83
2023/04/09 19:56:11;;;;;;;4.40;4.00;;;;;;;;;;6277642;22;20138;-83
2023/04/09 19:58:36;;;;;;;4.65;4.22;;;;;;;;;;6277573;22;20046;-83
2023/04/09 20:01:02;;;;;;;5.22;4.43;;;;;;;;;;6276108;22;20008;-83
2023/04/09 20:03:30;;;;;;;4.47;4.07;;;;;;;;;;6277885;22;20073;-83
2023/04/09 20:05:56;;;;;;;4.50;4.10;;;;;;;;;;6277905;22;20411;-83
2023/04/09 20:08:22;;;;;;;4.43;4.00;;;;;;;;;;6277609;22;20000;-82
2023/04/09 20:10:47;;;;;;;4.40;4.00;;;;;;;;;;6277911;22;20000;-83
2023/04/09 20:13:13;;;;;;;4.43;4.03;;;;;;;;;;6277958;22;20067;-83
2023/04/09 20:15:38;;;;;;;4.25;3.85;;;;;;;;;;6277398;22;20335;-83
2023/04/09 20:18:04;;;;;;;3.90;3.60;;;;;;;;;;6277645;22;20006;-83
2023/04/09 20:20:29;;;;;;;4.25;3.95;;;;;;;;;;6277428;22;20012;-83
2023/04/09 20:22:55;;;;;;;4.20;3.78;;;;;;;;;;6277842;22;20004;-83
2023/04/09 20:25:20;;;;;;;4.10;3.70;;;;;;;;;;6277539;22;20069;-82
2023/04/09 20:27:47;;;;;;;4.05;3.65;;;;;;;;;;6277488;22;20077;-82
2023/04/09 20:30:13;;;;;;;7.18;5.95;;;;;;;;;;6277374;22;20141;-83
2023/04/09 20:32:39;;;;;;;8.40;7.00;;;;;;;;;;6277473;22;20003;-82
2023/04/09 20:35:07;;;;;;;11.20;8.93;;;;;;;;;;6277283;22;20426;-83
2023/04/09 20:37:33;;;;;;;7.32;6.57;;;;;;;;;;6277311;22;20007;-83
2023/04/09 20:39:59;;;;;;;5.53;5.03;;;;;;;;;;6277347;22;20069;-83
2023/04/09 20:42:25;;;;;;;4.90;4.50;;;;;;;;;;6277218;22;20008;-83
2023/04/09 20:44:50;;;;;;;5.00;4.60;;;;;;;;;;6277490;22;20472;-83
2023/04/09 20:47:15;;;;;;;4.78;4.38;;;;;;;;;;6277330;22;20026;-83
2023/04/09 20:49:41;;;;;;;4.70;4.30;;;;;;;;;;6277221;22;20000;-83
2023/04/09 20:52:07;;;;;;;4.95;4.03;;;;;;;;;;6277330;22;20003;-83
2023/04/09 20:54:33;;;;;;;4.55;3.83;;;;;;;;;;6277178;22;20000;-82
2023/04/09 20:57:00;;;;;;;4.32;3.92;;;;;;;;;;6275457;22;20058;-83
2023/04/09 20:59:26;;;;;;;4.55;4.15;;;;;;;;;;6277181;22;20000;-80
2023/04/09 21:01:54;;;;;;;4.70;4.20;;;;;;;;;;6277048;22;20319;-80
2023/04/09 21:04:19;;;;;;;3.83;3.53;;;;;;;;;;6277046;22;20011;-80
2023/04/09 21:06:46;;;;;;;4.43;4.03;;;;;;;;;;6275709;22;20000;-80
2023/04/09 21:09:12;;;;;;;3.80;3.50;;;;;;;;;;6275308;22;20049;-80
2023/04/09 21:11:37;;;;;;;4.65;4.25;;;;;;;;;;6276913;22;20007;-80
2023/04/09 21:14:05;;;;;;;4.90;4.40;;;;;;;;;;6277064;22;20411;-81
2023/04/09 21:16:32;;;;;;;4.32;3.78;;;;;;;;;;6276862;22;20419;-82
2023/04/09 21:18:57;;;;;;;4.47;3.85;;;;;;;;;;6277037;22;20078;-82
2023/04/09 21:21:26;;;;;;;4.38;3.92;;;;;;;;;;6275421;22;20445;-82
2023/04/09 21:23:51;;;;;;;4.47;4.07;;;;;;;;;;6275586;22;20023;-81
2023/04/09 21:26:17;;;;;;;4.90;4.43;;;;;;;;;;6276986;22;20377;-81
2023/04/09 21:28:43;;;;;;;4.28;3.88;;;;;;;;;;6277085;22;20010;-82
2023/04/09 21:31:09;;;;;;;5.20;4.70;;;;;;;;;;6276958;22;20368;-82
2023/04/09 21:33:35;;;;;;;6.05;5.45;;;;;;;;;;6276808;22;20033;-81
2023/04/09 21:36:03;;;;;;;5.57;5.10;;;;;;;;;;6276734;22;20036;-82
2023/04/09 21:38:28;;;;;;;4.47;4.07;;;;;;;;;;6274814;22;20365;-82
2023/04/09 21:40:54;;;;;;;4.20;3.85;;;;;;;;;;6275068;22;20018;-82
2023/04/09 21:43:19;;;;;;;4.30;3.92;;;;;;;;;;6276647;22;20071;-82
2023/04/09 21:45:45;;;;;;;4.10;3.70;;;;;;;;;;6277149;22;20003;-82
2023/04/09 21:48:11;;;;;;;4.30;3.90;;;;;;;;;;6277634;22;20066;-83
2023/04/09 21:50:36;;;;;;;4.00;3.60;;;;;;;;;;6276818;22;20038;-82
2023/04/09 21:53:02;;;;;;;4.30;3.90;;;;;;;;;;6276960;22;20373;-81
2023/04/09 21:55:27;;;;;;;4.13;3.72;;;;;;;;;;6276872;22;20127;-82
2023/04/09 21:57:54;;;;;;;3.95;3.65;;;;;;;;;;6277027;22;20003;-83
